Terminal Aerodrome Forecast
Issued by NWS Wichita, KS

Home | Current Version | Previous Version | Graphics & Text | Print | Product List | Glossary On
Versions: 1 2 3 4 5 6 7 8 9 10 11 12 13 14 15 16 17 18 19 20 21
064
FTUS43 KICT 171722
TAFICT
TAF
KICT 171722Z 1718/1818 06010KT P6SM VCSH OVC015
      TEMPO 1718/1719 OVC008
     FM172000 07010KT P6SM VCSH OVC020
     FM172200 09010KT P6SM VCSH BKN035
     FM180300 13008KT P6SM VCTS OVC030CB
     FM181100 16009KT P6SM BKN025=

USA.gov is the U.S. government's official web portal to all federal, state and local government web resources and services.